Ayia Paraskevi, Greece
Current Conditions -  °F | °C
As of 11:50 AM on Sunday 23 Nov 2014 (Local Time) from LGMT Reporting Station
Few Clouds Few Clouds  
Wind Chill: 54°   Ceiling: Unl
Heat Index: 54°   Visibility: 6mi
Dew Point: 41°   Wind: 6mph
Humidity: 62%   Direction: 360°N
Pressure: 30.27"   Gusts: NA
Location:  39.25°N, 26.27°E
Report Text: LGMT 230950Z 36005KT 9999 FEW020 12/05 Q1025
Loading
Personal Weather Stations






























Interactive Weather Map New forecast layout! Learn more

10-Day Weather Forecast

Advertisements
Track Severe Weather on mobile